Will Rogers World Airport Oklahoma City US
ICAO: KOKC
IATA: OKC
Category: Large
Scheduled Services: Yes

Elevation: 1295 ft
TransAlt. 18000 ft.

Airport Communications:
OKE CITY APP/DEP:120.45
ATIS:125.85
CLNC DEL:124.35
GND:121.9
ANG OPS COMD POST:22.56
ROGERS TWR:119.35

KOKC Zoom In..

Runways:

(A) RW 13 length 7800 ft width 150 ft
---- / hdg 130

(B) RW 17L length 9802 ft width 150 ft
ILS 110.90 / hdg 175

(C) RW 17R length 9800 ft width 150 ft
ILS 110.70 / hdg 175

(D) RW 18 length 3078 ft width 75 ft
---- / hdg 175

(E) RW 31 length 7800 ft width 150 ft
---- / hdg 310

(F) RW 35L length 9800 ft width 150 ft
ILS 110.70 / hdg 355

(G) RW 35R length 9802 ft width 150 ft
ILS 110.90 / hdg 355

(H) RW 36 length 3078 ft width 75 ft
---- / hdg 355

Location; KOKC
Day. 22 / Time. 00.52 Zulu
* Altimeter: 30.12
* Temperature: 21° c. 69.8°f.
* Wind from: 110° Speed 06 kn.
Dewpoint: 14° c.
Visibility: 10 Statute Miles.
Clouds: Few 8000 ft.
Clouds: Scattered 18000 ft.
Clouds: Broken 25000 ft.

KOKC 220052Z 11006KT 10SM FEW080 SCT180 BKN250 21/14 A3012 RMK AO2 SLP192 T02110144

Going to: --> -->


Wind From 110°
Speed 06 kn.

 
 
jpsmedia worldairports.se 2020   terms of use